Time;durP1;ratioP1;P1;durP2;ratioP2;P2;SDS_P1;SDS_P2;PMS_P1;PMS_P2;Temp;Humidity;BMP_temperature;BMP_pressure;BME280_temperature;BME280_humidity;BME280_pressure;Samples;Min_cycle;Max_cycle;Signal;HPM_P1;HPM_P2
2022/05/15 00:01:10;;;;;;;;;;;8.40;89.60;;;;;;5072917;28;20007;-63
2022/05/15 00:03:35;;;;;;;;;;;8.40;90.20;;;;;;5101474;28;20058;-63
2022/05/15 00:06:02;;;;;;;;;;;8.30;90.30;;;;;;5069266;28;20451;-63
2022/05/15 00:08:28;;;;;;;;;;;8.40;90.70;;;;;;5070505;28;19935;-63
2022/05/15 00:10:54;;;;;;;;;;;8.40;90.80;;;;;;5071846;28;20008;-64
2022/05/15 00:13:20;;;;;;;;;;;8.40;90.80;;;;;;5078291;28;20141;-63
2022/05/15 00:15:46;;;;;;;;;;;8.40;90.60;;;;;;5066786;28;19925;-63
2022/05/15 00:18:11;;;;;;;;;;;8.40;90.60;;;;;;5085432;28;20345;-63
2022/05/15 00:20:39;;;;;;;;;;;8.40;90.50;;;;;;5077744;28;19924;-63
2022/05/15 00:23:05;;;;;;;;;;;8.40;90.40;;;;;;5076679;28;19927;-64
2022/05/15 00:25:31;;;;;;;;;;;8.40;90.20;;;;;;5076756;28;19927;-63
2022/05/15 00:27:56;;;;;;;;;;;8.40;90.50;;;;;;5070720;28;19920;-65
2022/05/15 00:30:22;;;;;;;;;;;8.40;90.50;;;;;;5080385;28;20382;-64
2022/05/15 00:32:48;;;;;;;;;;;8.40;90.50;;;;;;5071494;28;19951;-63
2022/05/15 00:35:14;;;;;;;;;;;8.40;90.50;;;;;;5087087;28;20999;-64
2022/05/15 00:37:39;;;;;;;;;;;8.30;90.10;;;;;;5079288;28;19928;-64
2022/05/15 00:40:06;;;;;;;;;;;8.30;91.00;;;;;;5076676;28;20674;-64
2022/05/15 00:42:31;;;;;;;;;;;8.20;90.20;;;;;;5070794;28;19921;-64
2022/05/15 00:44:57;;;;;;;;;;;8.20;90.50;;;;;;5077506;28;20029;-63
2022/05/15 00:47:22;;;;;;;;;;;8.20;92.40;;;;;;5085235;28;19924;-65
2022/05/15 00:49:48;;;;;;;;;;;8.20;91.60;;;;;;5073364;28;20341;-64
2022/05/15 00:52:16;;;;;;;;;;;8.10;90.40;;;;;;5067947;28;19952;-63
2022/05/15 00:54:41;;;;;;;;;;;8.00;90.30;;;;;;5068603;28;19936;-63
2022/05/15 00:57:15;;;;;;;;;;;8.00;93.00;;;;;;5102312;28;19920;-63
2022/05/15 00:59:51;;;;;;;;;;;8.00;93.20;;;;;;5089203;28;20420;-64
2022/05/15 01:02:17;;;;;;;;;;;8.00;92.40;;;;;;5082600;28;20284;-63
2022/05/15 01:04:43;;;;;;;;;;;8.00;92.10;;;;;;5080980;28;19950;-64
2022/05/15 01:07:08;;;;;;;;;;;7.90;91.70;;;;;;5078465;28;19924;-63
2022/05/15 01:09:34;;;;;;;;;;;7.90;91.90;;;;;;5073238;28;20008;-64
2022/05/15 01:12:01;;;;;;;;;;;8.00;92.70;;;;;;5079379;28;19930;-65
2022/05/15 01:14:26;;;;;;;;;;;7.90;91.50;;;;;;5089250;28;19924;-64
2022/05/15 01:16:52;;;;;;;;;;;7.80;91.90;;;;;;5074817;28;19927;-64
2022/05/15 01:19:27;;;;;;;;;;;7.90;91.50;;;;;;5075800;28;19927;-63
2022/05/15 01:21:56;;;;;;;;;;;7.80;91.40;;;;;;5085036;28;20014;-63
2022/05/15 01:24:22;;;;;;;;;;;7.80;91.60;;;;;;5073185;28;19951;-65
2022/05/15 01:26:47;;;;;;;;;;;7.80;91.50;;;;;;5080967;28;19924;-63
2022/05/15 01:29:13;;;;;;;;;;;7.80;91.30;;;;;;5077569;28;20579;-63
2022/05/15 01:31:39;;;;;;;;;;;7.70;93.80;;;;;;5079781;28;19958;-63
2022/05/15 01:34:08;;;;;;;;;;;7.60;93.70;;;;;;5076523;28;19920;-63
2022/05/15 01:36:34;;;;;;;;;;;7.60;92.20;;;;;;5080314;28;20381;-64
2022/05/15 01:38:59;;;;;;;;;;;7.60;92.10;;;;;;5089152;28;19924;-64
2022/05/15 01:41:25;;;;;;;;;;;7.50;91.70;;;;;;5089662;28;19950;-64
2022/05/15 01:43:54;;;;;;;;;;;7.50;91.70;;;;;;5085579;28;19963;-63
2022/05/15 01:46:21;;;;;;;;;;;7.50;91.70;;;;;;5083953;28;19982;-63
2022/05/15 01:48:47;;;;;;;;;;;7.50;91.60;;;;;;5087094;28;19928;-63
2022/05/15 01:51:13;;;;;;;;;;;7.50;91.60;;;;;;5073083;28;19952;-63
2022/05/15 01:53:39;;;;;;;;;;;7.40;91.90;;;;;;5082297;28;19966;-64
2022/05/15 01:56:05;;;;;;;;;;;7.40;92.00;;;;;;5084088;28;20382;-64
2022/05/15 01:58:30;;;;;;;;;;;7.30;91.30;;;;;;5084357;28;20007;-63
2022/05/15 02:00:56;;;;;;;;;;;7.30;91.30;;;;;;5076596;28;19931;-63
2022/05/15 02:03:21;;;;;;;;;;;7.30;92.50;;;;;;5085583;28;19952;-63
2022/05/15 02:05:47;;;;;;;;;;;7.20;92.10;;;;;;5081231;28;19946;-64
2022/05/15 02:08:12;;;;;;;;;;;7.30;93.60;;;;;;5081652;28;20369;-63
2022/05/15 02:10:38;;;;;;;;;;;7.30;93.60;;;;;;5079228;28;19979;-63
2022/05/15 02:13:03;;;;;;;;;;;7.20;92.90;;;;;;5055854;28;19924;-63
2022/05/15 02:15:29;;;;;;;;;;;7.20;92.50;;;;;;5103152;28;19925;-63
2022/05/15 02:17:54;;;;;;;;;;;7.30;92.50;;;;;;5071706;28;20113;-63
2022/05/15 02:20:20;;;;;;;;;;;7.20;92.40;;;;;;5074524;28;19924;-64
2022/05/15 02:22:45;;;;;;;;;;;7.10;91.60;;;;;;5075474;28;19921;-63
2022/05/15 02:25:12;;;;;;;;;;;7.10;91.50;;;;;;5083586;28;20015;-63
2022/05/15 02:27:37;;;;;;;;;;;7.10;92.30;;;;;;5070279;28;19924;-63
2022/05/15 02:30:04;;;;;;;;;;;7.10;93.20;;;;;;5086628;28;19927;-63
2022/05/15 02:32:29;;;;;;;;;;;7.00;93.50;;;;;;5071181;28;20035;-64
2022/05/15 02:34:55;;;;;;;;;;;7.00;91.90;;;;;;5075657;28;20501;-64
2022/05/15 02:37:20;;;;;;;;;;;6.90;91.90;;;;;;5079773;28;19920;-63
2022/05/15 02:39:46;;;;;;;;;;;6.90;93.30;;;;;;5070844;28;19924;-63
2022/05/15 02:42:11;;;;;;;;;;;7.00;93.00;;;;;;5086867;28;19924;-65
2022/05/15 02:44:37;;;;;;;;;;;6.90;91.70;;;;;;5082673;28;19927;-65
2022/05/15 02:47:03;;;;;;;;;;;6.90;92.40;;;;;;5070750;28;20505;-65
2022/05/15 02:52:13;;;;;;;;;;;7.00;92.20;;;;;;5074457;28;20042;-63
2022/05/15 02:54:38;;;;;;;;;;;6.90;92.20;;;;;;5081127;28;20011;-64
2022/05/15 02:57:05;;;;;;;;;;;6.90;92.10;;;;;;5069622;28;20434;-63
2022/05/15 02:59:30;;;;;;;;;;;6.80;91.80;;;;;;5068965;28;19950;-64
2022/05/15 03:01:56;;;;;;;;;;;6.70;91.20;;;;;;5071286;28;19920;-64
2022/05/15 03:04:21;;;;;;;;;;;6.70;91.70;;;;;;5104136;28;20003;-64
2022/05/15 03:06:47;;;;;;;;;;;6.80;93.80;;;;;;5071767;28;19927;-63
2022/05/15 03:09:12;;;;;;;;;;;6.80;93.00;;;;;;5079061;28;20424;-63
2022/05/15 03:11:38;;;;;;;;;;;6.80;92.40;;;;;;5069151;28;20049;-65
2022/05/15 03:14:04;;;;;;;;;;;6.70;92.50;;;;;;5086098;28;20378;-64
2022/05/15 03:16:31;;;;;;;;;;;6.80;92.60;;;;;;5081333;28;19935;-63
2022/05/15 03:18:56;;;;;;;;;;;6.80;92.60;;;;;;5052007;28;19964;-63
2022/05/15 03:21:30;;;;;;;;;;;6.80;92.40;;;;;;5073597;28;19962;-62
2022/05/15 03:23:57;;;;;;;;;;;6.80;92.40;;;;;;5072969;28;20260;-64
2022/05/15 03:26:23;;;;;;;;;;;6.80;92.70;;;;;;5075171;28;19928;-64
2022/05/15 03:28:49;;;;;;;;;;;6.80;92.70;;;;;;5079320;28;20312;-63
2022/05/15 03:31:15;;;;;;;;;;;6.70;91.70;;;;;;5074100;28;19955;-63
2022/05/15 03:33:40;;;;;;;;;;;6.60;92.20;;;;;;5084444;28;20271;-64
2022/05/15 03:36:10;;;;;;;;;;;6.70;92.70;;;;;;5074533;28;19920;-63
2022/05/15 03:38:36;;;;;;;;;;;6.70;93.30;;;;;;5088319;28;20330;-63
2022/05/15 03:41:02;;;;;;;;;;;6.60;93.40;;;;;;5076495;28;20474;-64
2022/05/15 03:43:27;;;;;;;;;;;6.60;93.00;;;;;;5081534;28;19963;-63
2022/05/15 03:45:53;;;;;;;;;;;6.60;93.20;;;;;;5076017;28;20363;-63
2022/05/15 03:48:18;;;;;;;;;;;6.70;93.20;;;;;;5087810;28;19950;-64
2022/05/15 03:50:44;;;;;;;;;;;6.60;93.10;;;;;;5072050;28;19931;-63
2022/05/15 03:53:09;;;;;;;;;;;6.60;93.20;;;;;;5069677;28;20023;-63
2022/05/15 03:55:35;;;;;;;;;;;6.50;93.00;;;;;;5083505;28;19943;-64
2022/05/15 03:58:00;;;;;;;;;;;6.60;93.10;;;;;;5079452;28;19949;-64
2022/05/15 04:00:28;;;;;;;;;;;6.60;93.40;;;;;;5078691;28;19958;-63
2022/05/15 04:02:54;;;;;;;;;;;6.60;93.30;;;;;;5069791;28;19920;-63
2022/05/15 04:05:19;;;;;;;;;;;6.60;93.50;;;;;;5075963;28;19974;-64
2022/05/15 04:07:50;;;;;;;;;;;6.70;93.40;;;;;;5071411;28;19921;-63
2022/05/15 04:10:17;;;;;;;;;;;6.70;93.50;;;;;;5069211;28;20043;-64
2022/05/15 04:12:42;;;;;;;;;;;6.70;93.20;;;;;;5077213;28;20011;-65
2022/05/15 04:15:08;;;;;;;;;;;6.70;93.20;;;;;;5080061;28;20456;-64
2022/05/15 04:17:39;;;;;;;;;;;6.70;93.40;;;;;;5067949;28;19921;-63
2022/05/15 04:20:04;;;;;;;;;;;6.80;93.50;;;;;;5070122;28;19921;-64
2022/05/15 04:22:30;;;;;;;;;;;6.80;93.30;;;;;;5069649;28;19924;-64
2022/05/15 04:24:55;;;;;;;;;;;6.80;93.10;;;;;;5071441;28;19927;-63
2022/05/15 04:27:21;;;;;;;;;;;6.80;93.00;;;;;;5082197;28;20426;-63
2022/05/15 04:29:46;;;;;;;;;;;6.90;93.20;;;;;;5075752;28;20382;-64
2022/05/15 04:32:12;;;;;;;;;;;6.90;93.00;;;;;;5080766;28;20376;-64
2022/05/15 04:34:37;;;;;;;;;;;7.00;93.30;;;;;;5078393;28;19959;-63
2022/05/15 04:37:03;;;;;;;;;;;7.10;93.60;;;;;;5081978;28;19963;-63
2022/05/15 04:39:32;;;;;;;;;;;7.10;93.50;;;;;;5074662;28;19920;-63
2022/05/15 04:42:00;;;;;;;;;;;7.10;93.50;;;;;;5073842;28;19943;-64
2022/05/15 04:44:25;;;;;;;;;;;7.20;93.50;;;;;;5076161;28;20038;-64
2022/05/15 04:46:51;;;;;;;;;;;7.30;93.80;;;;;;5077925;28;20027;-63
2022/05/15 04:49:16;;;;;;;;;;;7.40;93.80;;;;;;5089370;28;19928;-64
2022/05/15 04:51:42;;;;;;;;;;;7.40;93.80;;;;;;5072920;28;19920;-63
2022/05/15 04:54:07;;;;;;;;;;;7.50;93.90;;;;;;5072860;28;19924;-64
2022/05/15 04:56:33;;;;;;;;;;;7.60;94.00;;;;;;5085052;28;20371;-63
2022/05/15 04:58:58;;;;;;;;;;;7.70;94.10;;;;;;5074306;28;20224;-63
2022/05/15 05:01:25;;;;;;;;;;;7.80;94.00;;;;;;5078041;28;19924;-64
2022/05/15 05:03:54;;;;;;;;;;;7.90;94.80;;;;;;5073055;28;19925;-65
2022/05/15 05:06:20;;;;;;;;;;;8.00;94.70;;;;;;5072704;28;19944;-64
2022/05/15 05:08:45;;;;;;;;;;;8.20;94.40;;;;;;5074631;28;20327;-63
2022/05/15 05:11:11;;;;;;;;;;;8.30;94.40;;;;;;5074491;28;19921;-63
2022/05/15 05:13:36;;;;;;;;;;;8.50;94.30;;;;;;5072854;28;19931;-64
2022/05/15 05:16:02;;;;;;;;;;;8.60;94.20;;;;;;5080935;28;19924;-64
2022/05/15 05:18:27;;;;;;;;;;;8.80;94.20;;;;;;5077592;28;19970;-64
2022/05/15 05:20:53;;;;;;;;;;;8.90;94.00;;;;;;5077364;28;19920;-64
2022/05/15 05:23:18;;;;;;;;;;;9.10;93.70;;;;;;5078587;28;19927;-64
2022/05/15 05:25:44;;;;;;;;;;;9.20;93.60;;;;;;5075872;28;20438;-64
2022/05/15 05:28:09;;;;;;;;;;;9.40;93.50;;;;;;5080229;28;19946;-64
2022/05/15 05:30:37;;;;;;;;;;;9.50;93.30;;;;;;5086070;28;19928;-64
2022/05/15 05:33:03;;;;;;;;;;;9.70;93.30;;;;;;5075511;28;19977;-64
2022/05/15 05:35:29;;;;;;;;;;;9.90;93.00;;;;;;5088625;28;20700;-64
2022/05/15 05:37:54;;;;;;;;;;;10.10;93.10;;;;;;5086696;28;19924;-65
2022/05/15 05:40:20;;;;;;;;;;;10.20;92.60;;;;;;5077823;28;20015;-64
2022/05/15 05:42:45;;;;;;;;;;;10.40;92.40;;;;;;5073284;28;19931;-66
2022/05/15 05:45:11;;;;;;;;;;;10.50;92.10;;;;;;5078852;28;19927;-64
2022/05/15 05:47:37;;;;;;;;;;;10.70;91.90;;;;;;5080013;28;19931;-65
2022/05/15 05:50:03;;;;;;;;;;;11.00;91.90;;;;;;5082418;28;20042;-65
2022/05/15 05:52:29;;;;;;;;;;;11.10;91.50;;;;;;5078520;28;19955;-66
2022/05/15 05:54:54;;;;;;;;;;;11.30;91.70;;;;;;5076761;28;20431;-64
2022/05/15 05:57:20;;;;;;;;;;;11.50;91.20;;;;;;5072690;28;19968;-64
2022/05/15 05:59:46;;;;;;;;;;;11.70;91.20;;;;;;5080027;28;19965;-65
2022/05/15 06:02:11;;;;;;;;;;;11.90;90.90;;;;;;5080084;28;19920;-65
2022/05/15 06:04:40;;;;;;;;;;;12.10;90.60;;;;;;5073856;28;19924;-65
2022/05/15 06:07:06;;;;;;;;;;;12.30;90.50;;;;;;5076041;28;19942;-65
2022/05/15 06:09:32;;;;;;;;;;;12.60;89.70;;;;;;5090682;28;20371;-66
2022/05/15 06:11:57;;;;;;;;;;;12.90;88.80;;;;;;5070032;28;19927;-65
2022/05/15 06:14:23;;;;;;;;;;;13.10;88.10;;;;;;5072819;28;20609;-66
2022/05/15 06:16:48;;;;;;;;;;;13.30;86.90;;;;;;5072452;28;20382;-65
2022/05/15 06:19:14;;;;;;;;;;;13.50;85.90;;;;;;5087335;28;19985;-65
2022/05/15 06:21:39;;;;;;;;;;;13.70;84.90;;;;;;5072855;28;19924;-65
2022/05/15 06:24:05;;;;;;;;;;;14.00;83.20;;;;;;5077328;28;20245;-65
2022/05/15 06:26:30;;;;;;;;;;;14.20;82.70;;;;;;5080568;28;19964;-65
2022/05/15 06:28:56;;;;;;;;;;;14.30;79.80;;;;;;5075911;28;19920;-66
2022/05/15 06:31:21;;;;;;;;;;;14.60;80.30;;;;;;5082248;28;20011;-63
2022/05/15 06:33:47;;;;;;;;;;;14.70;78.00;;;;;;5085132;28;20391;-64
2022/05/15 06:36:12;;;;;;;;;;;14.80;77.70;;;;;;5081708;28;19924;-65
2022/05/15 06:38:40;;;;;;;;;;;15.00;76.10;;;;;;5074678;28;19932;-64
2022/05/15 06:41:09;;;;;;;;;;;15.10;74.70;;;;;;5069284;28;19974;-65
2022/05/15 06:43:35;;;;;;;;;;;15.30;74.10;;;;;;5107639;28;20429;-65
2022/05/15 06:46:00;;;;;;;;;;;15.30;72.20;;;;;;5082552;28;19921;-65
2022/05/15 06:48:26;;;;;;;;;;;15.50;72.00;;;;;;5073099;28;19924;-66
2022/05/15 06:50:51;;;;;;;;;;;15.60;71.40;;;;;;5076697;28;19924;-65
2022/05/15 06:53:17;;;;;;;;;;;15.80;70.50;;;;;;5085114;28;20580;-63
2022/05/15 06:58:27;;;;;;;;;;;16.10;70.20;;;;;;5083616;28;19920;-65
2022/05/15 07:00:52;;;;;;;;;;;16.40;69.30;;;;;;5075558;28;19921;-65
2022/05/15 07:03:18;;;;;;;;;;;16.50;67.80;;;;;;5077741;28;19927;-65
2022/05/15 07:05:44;;;;;;;;;;;16.70;68.40;;;;;;5086619;28;19970;-65
2022/05/15 07:08:11;;;;;;;;;;;16.90;66.30;;;;;;5072826;28;19931;-64
2022/05/15 07:10:37;;;;;;;;;;;17.00;66.60;;;;;;5086166;28;19920;-65
2022/05/15 07:13:03;;;;;;;;;;;17.30;65.00;;;;;;5092591;28;19924;-64
2022/05/15 07:15:29;;;;;;;;;;;17.50;64.10;;;;;;5088671;28;19966;-65
2022/05/15 07:17:54;;;;;;;;;;;17.60;64.10;;;;;;5080637;28;19920;-66
2022/05/15 07:20:20;;;;;;;;;;;17.70;62.00;;;;;;5088008;28;19927;-66
2022/05/15 07:22:45;;;;;;;;;;;17.90;63.50;;;;;;5077491;28;19928;-65
2022/05/15 07:25:11;;;;;;;;;;;18.00;64.00;;;;;;5073918;28;19931;-65
2022/05/15 07:27:36;;;;;;;;;;;18.30;63.50;;;;;;5080170;28;19924;-64
2022/05/15 07:30:03;;;;;;;;;;;18.50;60.80;;;;;;5089498;28;19966;-65
2022/05/15 07:32:28;;;;;;;;;;;18.70;61.30;;;;;;5079592;28;20402;-64
2022/05/15 07:34:53;;;;;;;;;;;18.70;58.20;;;;;;5080046;28;19928;-64
2022/05/15 07:37:19;;;;;;;;;;;18.60;59.10;;;;;;5074634;28;19956;-65
2022/05/15 07:39:44;;;;;;;;;;;18.70;58.00;;;;;;5084038;28;19924;-66
2022/05/15 07:42:10;;;;;;;;;;;18.90;59.30;;;;;;5083085;28;19935;-65
2022/05/15 07:44:36;;;;;;;;;;;19.10;58.20;;;;;;5063147;28;19924;-66
2022/05/15 07:47:01;;;;;;;;;;;19.30;59.20;;;;;;5087808;28;19924;-65
2022/05/15 07:49:27;;;;;;;;;;;19.40;55.90;;;;;;5076952;28;19927;-67
2022/05/15 07:51:52;;;;;;;;;;;19.40;56.50;;;;;;5076144;28;19924;-66
2022/05/15 07:54:19;;;;;;;;;;;19.60;57.60;;;;;;5084875;28;19975;-65
2022/05/15 07:56:44;;;;;;;;;;;19.80;57.60;;;;;;5082939;28;19924;-66
2022/05/15 07:59:11;;;;;;;;;;;19.90;56.60;;;;;;5070834;28;19929;-64
2022/05/15 08:01:37;;;;;;;;;;;20.00;56.10;;;;;;5078064;28;19976;-63
2022/05/15 08:04:03;;;;;;;;;;;20.20;53.80;;;;;;5087875;28;19978;-65
2022/05/15 08:09:12;;;;;;;;;;;20.50;53.60;;;;;;5074976;28;19924;-66
2022/05/15 08:11:38;;;;;;;;;;;21.10;53.60;;;;;;5076256;28;20290;-66
2022/05/15 08:14:05;;;;;;;;;;;21.20;53.70;;;;;;5072932;28;19921;-65
2022/05/15 08:16:31;;;;;;;;;;;21.40;53.30;;;;;;5076762;28;19928;-66
2022/05/15 08:24:26;;;;;;;;;;;21.70;49.00;;;;;;5079385;28;19928;-65
2022/05/15 08:26:51;;;;;;;;;;;22.00;48.30;;;;;;5087787;28;19924;-65
2022/05/15 08:29:18;;;;;;;;;;;22.40;48.90;;;;;;5084406;28;19927;-65
2022/05/15 08:31:44;;;;;;;;;;;22.40;45.00;;;;;;5080944;28;19920;-65
2022/05/15 08:34:09;;;;;;;;;;;22.80;45.80;;;;;;5081254;28;19924;-66
2022/05/15 08:36:35;;;;;;;;;;;23.20;46.80;;;;;;5082720;28;19934;-66
2022/05/15 08:39:00;;;;;;;;;;;23.10;46.00;;;;;;5079757;28;20402;-65
2022/05/15 08:41:33;;;;;;;;;;;23.30;44.80;;;;;;5081923;28;20401;-65
2022/05/15 08:44:05;;;;;;;;;;;23.50;43.30;;;;;;5064575;28;19928;-65
2022/05/15 08:46:33;;;;;;;;;;;23.60;44.10;;;;;;5073928;28;19928;-65
2022/05/15 08:49:10;;;;;;;;;;;23.90;41.60;;;;;;5066009;28;19924;-66
2022/05/15 08:51:36;;;;;;;;;;;24.20;42.80;;;;;;5065604;28;20007;-67
2022/05/15 08:54:03;;;;;;;;;;;24.60;40.60;;;;;;5066166;28;20070;-66
2022/05/15 08:56:29;;;;;;;;;;;24.50;38.20;;;;;;5066283;28;19924;-64
2022/05/15 08:58:56;;;;;;;;;;;24.50;39.30;;;;;;5067378;28;20407;-64
2022/05/15 09:01:24;;;;;;;;;;;24.70;39.80;;;;;;5064727;28;19924;-65
2022/05/15 09:03:49;;;;;;;;;;;25.20;39.70;;;;;;5067008;28;20291;-66
2022/05/15 09:06:37;;;;;;;;;;;25.50;39.00;;;;;;5067195;28;19928;-65
2022/05/15 09:09:06;;;;;;;;;;;25.80;38.70;;;;;;5075818;28;19927;-65
2022/05/15 09:11:36;;;;;;;;;;;26.10;38.70;;;;;;5078078;28;20321;-64
2022/05/15 09:14:08;;;;;;;;;;;26.20;36.70;;;;;;5086879;28;19966;-64
2022/05/15 09:16:34;;;;;;;;;;;26.30;37.20;;;;;;5074412;28;20074;-66
2022/05/15 09:19:05;;;;;;;;;;;26.60;37.50;;;;;;5073625;28;19946;-65
2022/05/15 09:21:31;;;;;;;;;;;27.20;36.60;;;;;;5088773;28;20335;-65
2022/05/15 09:24:03;;;;;;;;;;;27.50;34.80;;;;;;5084189;28;19924;-66
2022/05/15 09:26:40;;;;;;;;;;;27.90;35.40;;;;;;5090232;28;19965;-66
2022/05/15 09:29:12;;;;;;;;;;;28.10;34.70;;;;;;5088540;28;19920;-66
2022/05/15 09:31:42;;;;;;;;;;;28.40;34.60;;;;;;5085324;28;20011;-64
2022/05/15 09:34:10;;;;;;;;;;;29.00;33.00;;;;;;5089066;28;20266;-65
2022/05/15 09:36:36;;;;;;;;;;;28.60;33.00;;;;;;5080806;28;19931;-66
2022/05/15 09:39:13;;;;;;;;;;;28.50;32.70;;;;;;5078238;28;19924;-66
2022/05/15 09:44:30;;;;;;;;;;;27.90;31.50;;;;;;5074868;28;19925;-65
2022/05/15 09:46:57;;;;;;;;;;;27.80;32.00;;;;;;5082267;28;19924;-64
2022/05/15 09:49:26;;;;;;;;;;;27.00;30.50;;;;;;5083548;28;19966;-66
2022/05/15 09:51:53;;;;;;;;;;;25.90;34.60;;;;;;5081617;28;19920;-64
2022/05/15 09:54:34;;;;;;;;;;;27.00;33.50;;;;;;5085735;28;20395;-64
2022/05/15 09:57:19;;;;;;;;;;;27.40;33.20;;;;;;5081337;28;19935;-66
2022/05/15 09:59:58;;;;;;;;;;;28.00;33.50;;;;;;5083852;28;19924;-65
2022/05/15 10:02:37;;;;;;;;;;;29.20;32.00;;;;;;5083114;28;19946;-64
2022/05/15 10:05:10;;;;;;;;;;;29.70;30.10;;;;;;5080622;28;19920;-65
2022/05/15 10:07:44;;;;;;;;;;;29.90;29.10;;;;;;5076036;28;20397;-65
2022/05/15 10:10:18;;;;;;;;;;;30.40;28.40;;;;;;5083482;28;19928;-65
2022/05/15 10:12:44;;;;;;;;;;;31.10;30.00;;;;;;5086935;28;19920;-65
2022/05/15 10:15:11;;;;;;;;;;;31.10;28.50;;;;;;5091206;28;19990;-66
2022/05/15 10:17:42;;;;;;;;;;;31.10;27.80;;;;;;5087536;28;20002;-64
2022/05/15 10:20:29;;;;;;;;;;;31.70;28.80;;;;;;5089315;28;19928;-64
2022/05/15 10:23:03;;;;;;;;;;;31.60;27.60;;;;;;5072987;28;19965;-65
2022/05/15 10:25:48;;;;;;;;;;;31.40;27.20;;;;;;5085965;28;19924;-66
2022/05/15 10:28:19;;;;;;;;;;;31.80;28.20;;;;;;5088386;28;19959;-65
2022/05/15 10:31:05;;;;;;;;;;;32.50;27.20;;;;;;5082145;28;19924;-64
2022/05/15 10:33:35;;;;;;;;;;;32.60;27.80;;;;;;5076118;28;19924;-66
2022/05/15 10:36:07;;;;;;;;;;;32.50;27.10;;;;;;5084608;28;19979;-65
2022/05/15 10:38:51;;;;;;;;;;;32.50;26.30;;;;;;5090368;28;19920;-65
2022/05/15 10:41:26;;;;;;;;;;;31.60;27.00;;;;;;5083146;28;20391;-65
2022/05/15 10:43:59;;;;;;;;;;;30.10;28.20;;;;;;5084400;28;19920;-65
2022/05/15 10:46:31;;;;;;;;;;;29.00;29.30;;;;;;5083305;28;19935;-66
2022/05/15 10:49:15;;;;;;;;;;;28.70;31.40;;;;;;5083978;28;19986;-65
2022/05/15 10:51:56;;;;;;;;;;;28.10;30.90;;;;;;5086279;28;19965;-65
2022/05/15 10:57:26;;;;;;;;;;;27.10;32.30;;;;;;5088101;28;19924;-66
2022/05/15 10:59:54;;;;;;;;;;;26.60;31.60;;;;;;5072824;28;19920;-65
2022/05/15 11:02:29;;;;;;;;;;;26.00;33.60;;;;;;5086980;28;19928;-65
2022/05/15 11:04:57;;;;;;;;;;;25.60;33.40;;;;;;5078681;28;19920;-65
2022/05/15 11:07:38;;;;;;;;;;;25.30;33.30;;;;;;5082177;28;20489;-65
2022/05/15 11:10:04;;;;;;;;;;;25.10;34.60;;;;;;5074943;28;20033;-64
2022/05/15 11:12:33;;;;;;;;;;;24.80;35.40;;;;;;5079093;28;19924;-63
2022/05/15 11:14:58;;;;;;;;;;;24.40;34.30;;;;;;5085017;28;20024;-64
2022/05/15 11:17:31;;;;;;;;;;;23.90;35.30;;;;;;5080637;28;20010;-65
2022/05/15 11:20:01;;;;;;;;;;;23.90;36.30;;;;;;5089746;28;19981;-64
2022/05/15 11:22:31;;;;;;;;;;;24.10;36.50;;;;;;5088651;28;19940;-65
2022/05/15 11:25:16;;;;;;;;;;;24.40;37.10;;;;;;5089933;28;19952;-66
2022/05/15 11:27:49;;;;;;;;;;;24.30;36.80;;;;;;5082612;28;20287;-64
2022/05/15 11:30:19;;;;;;;;;;;24.40;37.00;;;;;;5083855;28;20372;-64
2022/05/15 11:32:57;;;;;;;;;;;24.40;35.40;;;;;;5075825;28;19977;-65
2022/05/15 11:35:24;;;;;;;;;;;24.30;35.20;;;;;;5079592;28;20007;-65
2022/05/15 11:37:59;;;;;;;;;;;24.10;35.90;;;;;;5085541;28;19927;-64
2022/05/15 11:40:42;;;;;;;;;;;24.10;35.10;;;;;;5072387;28;19921;-64
2022/05/15 11:43:26;;;;;;;;;;;24.00;34.90;;;;;;5078300;28;19930;-63
2022/05/15 11:45:53;;;;;;;;;;;23.90;36.10;;;;;;5077463;28;19924;-66
2022/05/15 11:48:20;;;;;;;;;;;24.00;37.70;;;;;;5086670;28;19920;-63
2022/05/15 11:50:58;;;;;;;;;;;24.10;36.40;;;;;;5083079;28;19976;-63
2022/05/15 11:53:29;;;;;;;;;;;23.80;36.10;;;;;;5075178;28;19920;-64
2022/05/15 11:55:54;;;;;;;;;;;24.10;35.60;;;;;;5076541;28;19920;-65
2022/05/15 11:58:26;;;;;;;;;;;24.20;36.30;;;;;;5089414;28;19944;-64
2022/05/15 12:00:59;;;;;;;;;;;24.00;35.10;;;;;;5086146;28;19927;-63
2022/05/15 12:03:34;;;;;;;;;;;23.70;35.40;;;;;;5060255;28;19924;-63
2022/05/15 12:06:02;;;;;;;;;;;23.70;36.30;;;;;;5084566;28;19927;-63
2022/05/15 12:08:29;;;;;;;;;;;24.00;36.40;;;;;;5091104;28;20007;-66
2022/05/15 12:10:56;;;;;;;;;;;23.90;35.40;;;;;;5082971;28;19927;-65
2022/05/15 12:13:26;;;;;;;;;;;24.40;35.50;;;;;;5073905;28;20002;-62
2022/05/15 12:16:12;;;;;;;;;;;24.50;34.50;;;;;;5086757;28;19946;-66
2022/05/15 12:18:38;;;;;;;;;;;25.00;34.80;;;;;;5076833;28;19965;-64
2022/05/15 12:21:05;;;;;;;;;;;25.00;34.10;;;;;;5070390;28;19932;-65
2022/05/15 12:23:35;;;;;;;;;;;25.10;32.80;;;;;;5085766;28;19924;-66
2022/05/15 12:26:00;;;;;;;;;;;25.40;33.30;;;;;;5073682;28;19952;-65
2022/05/15 12:28:50;;;;;;;;;;;26.30;33.10;;;;;;5074545;28;19924;-64
2022/05/15 12:31:18;;;;;;;;;;;27.30;31.70;;;;;;5085271;28;19986;-63
2022/05/15 12:33:44;;;;;;;;;;;29.30;29.80;;;;;;5073149;28;19924;-65
2022/05/15 12:36:11;;;;;;;;;;;30.80;29.10;;;;;;5074945;28;19925;-63
2022/05/15 12:38:38;;;;;;;;;;;32.90;28.30;;;;;;5088998;28;19965;-64
2022/05/15 12:41:07;;;;;;;;;;;32.90;25.80;;;;;;5085587;28;20359;-66
2022/05/15 12:43:32;;;;;;;;;;;34.30;25.10;;;;;;5082657;28;19970;-64
2022/05/15 12:45:59;;;;;;;;;;;35.20;25.20;;;;;;5076306;28;19968;-66
2022/05/15 12:48:25;;;;;;;;;;;35.80;23.90;;;;;;5082855;28;20408;-64
2022/05/15 12:50:50;;;;;;;;;;;35.90;24.30;;;;;;5089244;28;20386;-66
2022/05/15 12:53:21;;;;;;;;;;;36.10;23.00;;;;;;5078322;28;19928;-65
2022/05/15 12:55:47;;;;;;;;;;;36.00;23.50;;;;;;5083977;28;19924;-67
2022/05/15 12:58:12;;;;;;;;;;;36.00;22.40;;;;;;5086578;28;19935;-68
2022/05/15 13:00:39;;;;;;;;;;;36.70;23.30;;;;;;5088835;28;20622;-67
2022/05/15 13:03:08;;;;;;;;;;;36.30;22.10;;;;;;5082732;28;19943;-68
2022/05/15 13:05:35;;;;;;;;;;;36.60;23.80;;;;;;5077948;28;20268;-67
2022/05/15 13:08:03;;;;;;;;;;;37.20;23.80;;;;;;5077518;28;19927;-67
2022/05/15 13:10:30;;;;;;;;;;;37.60;22.10;;;;;;5078789;28;19927;-68
2022/05/15 13:12:57;;;;;;;;;;;37.30;22.80;;;;;;5094347;28;20293;-68
2022/05/15 13:15:27;;;;;;;;;;;38.00;23.10;;;;;;5077777;28;19961;-69
2022/05/15 13:17:54;;;;;;;;;;;37.10;22.20;;;;;;5083654;28;19935;-66
2022/05/15 13:20:21;;;;;;;;;;;37.50;22.20;;;;;;5074885;28;19928;-69
2022/05/15 13:22:47;;;;;;;;;;;36.70;21.30;;;;;;5084334;28;19921;-67
2022/05/15 13:25:16;;;;;;;;;;;36.50;23.00;;;;;;5085263;28;20483;-67
2022/05/15 13:27:43;;;;;;;;;;;36.80;23.00;;;;;;5082307;28;19927;-69
2022/05/15 13:30:14;;;;;;;;;;;36.20;22.00;;;;;;5075818;28;20013;-67
2022/05/15 13:32:41;;;;;;;;;;;36.40;23.40;;;;;;5095048;28;19963;-69
2022/05/15 13:35:07;;;;;;;;;;;37.20;23.20;;;;;;5087545;28;19942;-67
2022/05/15 13:37:34;;;;;;;;;;;37.30;22.60;;;;;;5090850;28;20308;-67
2022/05/15 13:45:29;;;;;;;;;;;36.70;22.00;;;;;;5091471;28;19924;-68
2022/05/15 13:48:01;;;;;;;;;;;36.90;22.10;;;;;;5091671;28;19928;-66
2022/05/15 13:50:43;;;;;;;;;;;36.20;22.50;;;;;;5076556;28;19938;-66
2022/05/15 13:53:17;;;;;;;;;;;35.50;22.30;;;;;;5081943;28;20015;-68
2022/05/15 13:55:43;;;;;;;;;;;36.00;22.50;;;;;;5084473;28;19924;-67
2022/05/15 13:58:09;;;;;;;;;;;36.60;22.60;;;;;;5079783;28;19924;-68
2022/05/15 14:00:35;;;;;;;;;;;36.30;21.60;;;;;;5075094;28;20445;-68
2022/05/15 14:03:02;;;;;;;;;;;36.30;22.40;;;;;;5081481;28;19924;-66
2022/05/15 14:05:28;;;;;;;;;;;35.20;22.10;;;;;;5091983;28;19924;-66
2022/05/15 14:08:06;;;;;;;;;;;33.30;23.20;;;;;;5085937;28;20019;-67
2022/05/15 14:10:33;;;;;;;;;;;30.80;23.80;;;;;;5090898;28;19935;-67
2022/05/15 14:13:01;;;;;;;;;;;29.90;25.40;;;;;;5075965;28;19928;-67
2022/05/15 14:15:53;;;;;;;;;;;30.80;26.00;;;;;;5082863;28;20322;-66
2022/05/15 14:18:35;;;;;;;;;;;31.40;26.10;;;;;;5078671;28;19936;-66
2022/05/15 14:21:06;;;;;;;;;;;31.90;26.00;;;;;;5082350;28;20316;-66
2022/05/15 14:23:32;;;;;;;;;;;33.00;25.60;;;;;;5072180;28;19920;-65
2022/05/15 14:25:57;;;;;;;;;;;31.50;25.10;;;;;;5080932;28;20468;-66
2022/05/15 14:28:23;;;;;;;;;;;30.30;24.50;;;;;;5087083;28;20035;-67
2022/05/15 14:30:49;;;;;;;;;;;29.40;26.50;;;;;;5084750;28;19926;-66
2022/05/15 14:33:19;;;;;;;;;;;28.50;26.90;;;;;;5081386;28;19955;-66
2022/05/15 14:35:55;;;;;;;;;;;27.90;27.70;;;;;;5086810;28;20386;-66
2022/05/15 14:38:20;;;;;;;;;;;28.40;27.80;;;;;;5088807;28;19928;-66
2022/05/15 14:40:46;;;;;;;;;;;28.40;27.90;;;;;;5073205;28;19984;-66
2022/05/15 14:43:11;;;;;;;;;;;28.10;28.00;;;;;;5076522;28;19925;-65
2022/05/15 14:45:42;;;;;;;;;;;27.60;28.00;;;;;;5080208;28;19928;-66
2022/05/15 14:48:11;;;;;;;;;;;26.90;28.40;;;;;;5077628;28;19936;-65
2022/05/15 14:50:36;;;;;;;;;;;26.30;28.80;;;;;;5096575;28;20244;-64